Terminal Aerodrome Forecast
Issued by NWS

Home | Current Version | Previous Version | Text Only | Print | Product List | Glossary On
Versions: 1 2 3 4 5 6 7 8 9 10 11 12 13 14 15
000
FTUS42 KJAX 300540
TAFCRG
TAF
KCRG 300540Z 3006/3106 22006KT P6SM SCT080 SCT120
     FM301400 28008KT P6SM VCSH SCT060 SCT100
     FM302000 12010KT P6SM SCT050 SCT100=

USA.gov is the U.S. government's official web portal to all federal, state and local government web resources and services.